Time;durP1;ratioP1;P1;durP2;ratioP2;P2;SDS_P1;SDS_P2;PMS_P1;PMS_P2;Temp;Humidity;BMP_temperature;BMP_pressure;BME280_temperature;BME280_humidity;BME280_pressure;Samples;Min_cycle;Max_cycle;Signal;HPM_P1;HPM_P2
2022/08/28 00:02:38;;;;;;;16.00;10.45;;;;;;;23.09;69.25;98487.17;2128951;84;21345;-81
2022/08/28 00:05:39;;;;;;;15.35;11.15;;;;;;;23.22;68.51;98483.03;2129153;82;21032;-81
2022/08/28 00:08:39;;;;;;;19.82;11.20;;;;;;;23.18;67.66;98484.97;2129115;84;21017;-82
2022/08/28 00:11:40;;;;;;;13.00;10.75;;;;;;;22.86;66.67;98476.20;2128975;82;21329;-80
2022/08/28 00:14:40;;;;;;;16.12;10.72;;;;;;;22.55;68.10;98473.97;2128913;84;20969;-81
2022/08/28 00:17:41;;;;;;;16.17;10.58;;;;;;;22.68;68.86;98471.65;2129028;82;20968;-81
2022/08/28 00:20:41;;;;;;;20.60;11.15;;;;;;;22.60;68.24;98473.31;2128902;83;21389;-80
2022/08/28 00:23:42;;;;;;;13.05;10.53;;;;;;;22.62;68.99;98468.78;2128957;84;21045;-81
2022/08/28 00:30:00;;;;;;;16.73;10.15;;;;;;;22.29;69.63;98475.02;2129035;83;21012;-80
2022/08/28 00:33:01;;;;;;;14.55;10.50;;;;;;;22.57;69.28;98461.47;2128897;82;21619;-80
2022/08/28 00:36:01;;;;;;;15.05;10.58;;;;;;;22.61;68.87;98467.05;2128970;82;20961;-81
2022/08/28 00:39:01;;;;;;;20.65;10.88;;;;;;;22.63;68.54;98464.33;2128943;82;20965;-80
2022/08/28 00:42:02;;;;;;;13.75;10.75;;;;;;;22.71;68.86;98459.08;2128812;82;20993;-80
2022/08/28 00:45:02;;;;;;;12.85;10.43;;;;;;;22.74;68.00;98456.29;2128815;82;21008;-80
2022/08/28 00:48:03;;;;;;;12.28;10.80;;;;;;;22.65;67.95;98460.67;2129026;82;21017;-79
2022/08/28 00:54:22;;;;;;;17.57;12.78;;;;;;;22.61;68.52;98455.55;2128695;83;20957;-81
2022/08/28 00:57:22;;;;;;;12.00;10.78;;;;;;;22.55;67.80;98456.68;2128967;82;21021;-81
2022/08/28 01:00:23;;;;;;;18.30;11.53;;;;;;;22.37;67.38;98457.42;2128589;82;20981;-82
2022/08/28 01:03:24;;;;;;;12.35;11.05;;;;;;;21.72;66.37;98455.61;2128482;84;21083;-82
2022/08/28 01:06:23;;;;;;;11.83;10.63;;;;;;;20.97;67.30;98459.70;2128549;82;20981;-81
2022/08/28 01:09:24;;;;;;;19.05;11.10;;;;;;;20.47;68.63;98461.45;2128616;84;20965;-81
2022/08/28 01:12:24;;;;;;;14.47;11.63;;;;;;;20.09;69.95;98458.25;2128379;82;20973;-82
2022/08/28 01:15:25;;;;;;;15.20;11.63;;;;;;;19.77;70.94;98461.03;2128663;82;21024;-81
2022/08/28 01:18:26;;;;;;;13.40;11.15;;;;;;;19.51;72.08;98469.28;2128437;82;20933;-81
2022/08/28 01:21:25;;;;;;;15.08;12.03;;;;;;;19.33;73.31;98465.86;2128388;83;21246;-81
2022/08/28 01:24:26;;;;;;;15.90;11.85;;;;;;;19.09;73.72;98462.14;2128489;82;21401;-82
2022/08/28 01:27:26;;;;;;;14.53;12.47;;;;;;;18.88;74.56;98464.90;2128490;82;20957;-81
2022/08/28 01:30:27;;;;;;;14.95;12.28;;;;;;;18.70;75.53;98464.95;2128622;84;20985;-81
2022/08/28 01:33:27;;;;;;;16.35;12.53;;;;;;;18.57;76.56;98466.60;2128601;82;21405;-81
2022/08/28 01:36:28;;;;;;;16.57;12.90;;;;;;;18.44;77.07;98467.38;2128713;84;21384;-81
2022/08/28 01:39:28;;;;;;;16.70;12.65;;;;;;;18.34;77.79;98464.55;2128064;82;20985;-80
2022/08/28 01:42:28;;;;;;;16.70;12.35;;;;;;;18.21;78.18;98467.95;2128497;82;20977;-81
2022/08/28 01:45:30;;;;;;;17.95;12.63;;;;;;;18.09;78.55;98462.94;2128501;82;21404;-82
2022/08/28 01:48:29;;;;;;;17.75;12.68;;;;;;;17.99;79.03;98469.34;2128376;82;20992;-82
2022/08/28 01:51:29;;;;;;;17.75;12.53;;;;;;;17.92;79.82;98474.36;2128262;82;21031;-81
2022/08/28 01:54:30;;;;;;;18.55;12.90;;;;;;;17.84;80.21;98465.30;2128434;82;20968;-81
2022/08/28 01:57:30;;;;;;;16.07;11.57;;;;;;;17.78;80.55;98468.08;2128369;82;20952;-82
2022/08/28 02:00:31;;;;;;;22.37;12.90;;;;;;;17.72;80.86;98458.53;2128355;82;21334;-81
2022/08/28 02:03:32;;;;;;;19.45;13.48;;;;;;;17.65;81.11;98462.63;2128384;82;21381;-81
2022/08/28 02:06:32;;;;;;;19.35;12.35;;;;;;;17.58;81.62;98464.53;2128207;82;20973;-82
2022/08/28 02:09:32;;;;;;;15.72;12.13;;;;;;;17.55;82.06;98467.25;2128467;84;20988;-81
2022/08/28 02:12:32;;;;;;;16.52;12.53;;;;;;;17.51;82.51;98466.45;2128527;82;20965;-83
2022/08/28 02:15:33;;;;;;;15.58;12.18;;;;;;;17.49;82.96;98459.47;2128698;82;21447;-82
2022/08/28 02:18:33;;;;;;;17.87;13.25;;;;;;;17.51;83.36;98463.80;2128500;82;21357;-81
2022/08/28 02:21:34;;;;;;;15.85;11.55;;;;;;;17.56;83.82;98466.80;2128379;82;21032;-83
2022/08/28 02:24:34;;;;;;;22.65;16.25;;;;;;;17.58;84.02;98464.53;2128820;82;21024;-81
2022/08/28 02:27:34;;;;;;;16.52;12.28;;;;;;;17.54;84.23;98458.05;2128430;84;21361;-81
2022/08/28 02:30:35;;;;;;;16.32;12.60;;;;;;;17.49;84.49;98452.41;2128858;82;20994;-82
2022/08/28 02:33:36;;;;;;;19.57;11.73;;;;;;;17.49;84.78;98462.97;2128772;82;20961;-81
2022/08/28 02:36:35;;;;;;;18.10;12.70;;;;;;;17.52;84.98;98463.36;2128776;82;20964;-81
2022/08/28 02:39:36;;;;;;;17.02;13.13;;;;;;;17.51;85.14;98471.72;2128657;84;21369;-81
2022/08/28 02:42:36;;;;;;;17.15;12.30;;;;;;;17.51;85.53;98468.22;2128868;82;20964;-81
2022/08/28 02:45:37;;;;;;;15.08;12.37;;;;;;;17.49;85.66;98464.29;2128742;82;21345;-82
2022/08/28 02:48:37;;;;;;;16.90;12.35;;;;;;;17.48;85.77;98464.33;2128701;82;21329;-82
2022/08/28 02:51:37;;;;;;;16.05;13.30;;;;;;;17.49;86.22;98460.78;2128200;82;21451;-81
2022/08/28 02:54:39;;;;;;;15.38;12.95;;;;;;;17.51;86.39;98460.30;2128618;82;20988;-83
2022/08/28 02:57:38;;;;;;;18.48;12.85;;;;;;;17.54;86.61;98460.23;2128385;84;20949;-83
2022/08/28 03:00:40;;;;;;;15.43;13.22;;;;;;;17.55;86.89;98465.92;2128339;82;21041;-82
2022/08/28 03:03:39;;;;;;;14.18;12.68;;;;;;;17.61;86.92;98465.79;2128565;82;20968;-83
2022/08/28 03:06:40;;;;;;;15.93;12.25;;;;;;;17.65;87.04;98463.95;2128371;82;21012;-82
2022/08/28 03:09:42;;;;;;;19.12;12.98;;;;;;;17.65;86.99;98462.63;2128596;82;20952;-83
2022/08/28 03:12:40;;;;;;;15.15;13.08;;;;;;;17.66;87.23;98461.31;2128567;84;21052;-83
2022/08/28 03:15:42;;;;;;;16.48;12.50;;;;;;;17.63;87.26;98461.34;2128070;82;21036;-83
2022/08/28 03:18:41;;;;;;;14.78;12.05;;;;;;;17.63;87.31;98468.39;2128476;82;20949;-83
2022/08/28 03:21:42;;;;;;;18.70;12.30;;;;;;;17.61;87.54;98467.11;2128396;82;21072;-83
2022/08/28 03:24:43;;;;;;;15.90;12.82;;;;;;;17.62;87.68;98469.30;2128686;84;21039;-84
2022/08/28 03:27:42;;;;;;;13.32;12.00;;;;;;;17.61;87.85;98468.42;2128694;82;21041;-83
2022/08/28 03:30:43;;;;;;;20.82;12.93;;;;;;;17.61;87.96;98467.11;2128771;82;21023;-83
2022/08/28 03:33:43;;;;;;;15.05;12.98;;;;;;;17.64;88.07;98467.04;2128749;84;20969;-83
2022/08/28 03:36:43;;;;;;;13.32;11.97;;;;;;;17.67;88.04;98463.50;2129053;82;21012;-82
2022/08/28 03:39:44;;;;;;;14.00;12.53;;;;;;;17.69;88.12;98463.88;2128514;82;20985;-82
2022/08/28 03:42:44;;;;;;;15.03;11.70;;;;;;;17.69;88.12;98461.23;2128832;82;21057;-83
2022/08/28 03:45:46;;;;;;;30.15;27.05;;;;;;;17.71;88.27;98461.20;2128978;84;20937;-83
2022/08/28 03:48:45;;;;;;;22.55;18.00;;;;;;;17.70;88.28;98467.39;2129174;82;20978;-84
2022/08/28 03:51:46;;;;;;;17.23;12.95;;;;;;;17.72;88.37;98470.86;2128946;84;21080;-83
2022/08/28 03:54:46;;;;;;;14.93;12.07;;;;;;;17.75;88.58;98472.98;2128804;82;21000;-84
2022/08/28 03:57:46;;;;;;;14.80;11.33;;;;;;;17.78;88.52;98475.55;2129027;82;20993;-83
2022/08/28 04:00:47;;;;;;;15.70;11.25;;;;;;;17.77;88.38;98476.45;2128951;82;21373;-80
2022/08/28 04:03:47;;;;;;;12.15;10.88;;;;;;;17.77;88.36;98481.73;2128809;82;21056;-82
2022/08/28 04:06:48;;;;;;;13.83;11.90;;;;;;;17.77;88.34;98477.77;2128828;82;21001;-81
2022/08/28 04:09:48;;;;;;;12.75;11.50;;;;;;;17.76;88.38;98482.63;2129010;82;20921;-83
2022/08/28 04:12:48;;;;;;;14.05;11.95;;;;;;;17.81;88.40;98488.67;2129044;82;21384;-82
2022/08/28 04:15:49;;;;;;;14.35;11.38;;;;;;;17.83;88.22;98485.55;2128665;82;21016;-81
2022/08/28 04:18:50;;;;;;;15.83;12.05;;;;;;;17.86;88.33;98484.61;2129330;84;20964;-83
2022/08/28 04:21:50;;;;;;;14.58;11.35;;;;;;;17.90;88.29;98485.41;2129123;82;21317;-82
2022/08/28 04:24:50;;;;;;;14.98;11.80;;;;;;;17.93;88.29;98484.02;2128920;82;21051;-82
2022/08/28 04:27:50;;;;;;;16.25;11.97;;;;;;;17.98;88.15;98484.77;2129236;82;20934;-81
2022/08/28 04:30:53;;;;;;;16.50;11.80;;;;;;;17.98;88.08;98488.73;2129140;84;20973;-82
2022/08/28 04:33:51;;;;;;;13.58;11.97;;;;;;;17.99;88.02;98487.38;2128947;82;20957;-82
2022/08/28 04:36:52;;;;;;;16.30;11.53;;;;;;;18.03;88.10;98489.05;2129201;82;21437;-82
2022/08/28 04:39:52;;;;;;;12.82;11.40;;;;;;;18.07;88.05;98488.06;2129111;84;20992;-84
2022/08/28 04:42:52;;;;;;;20.27;18.27;;;;;;;18.13;87.96;98491.02;2128986;84;20976;-83
2022/08/28 04:45:53;;;;;;;12.68;11.35;;;;;;;18.12;87.79;98483.99;2128979;82;20973;-83
2022/08/28 04:48:53;;;;;;;12.75;11.40;;;;;;;18.14;87.83;98487.47;2128881;82;20957;-83
2022/08/28 04:51:55;;;;;;;13.60;10.72;;;;;;;18.18;87.82;98490.45;2095164;82;21040;-83
2022/08/28 04:54:56;;;;;;;16.25;11.53;;;;;;;18.20;87.58;98482.03;2116149;83;21434;-82
2022/08/28 04:57:56;;;;;;;13.58;11.63;;;;;;;18.21;87.45;98477.20;2115776;84;21005;-83
2022/08/28 05:00:57;;;;;;;16.17;10.90;;;;;;;18.23;87.44;98483.31;2115555;83;20940;-85
2022/08/28 05:03:57;;;;;;;13.98;11.43;;;;;;;18.28;87.52;98490.67;2115769;83;21005;-83
2022/08/28 05:06:58;;;;;;;15.93;11.43;;;;;;;18.34;87.41;98490.97;2115945;83;20973;-84
2022/08/28 05:09:58;;;;;;;12.13;10.40;;;;;;;18.40;87.23;98496.11;2115855;83;20953;-83
2022/08/28 05:12:58;;;;;;;14.47;11.50;;;;;;;18.42;86.98;98500.45;2115517;83;20996;-83
2022/08/28 05:15:59;;;;;;;14.65;11.08;;;;;;;18.46;87.07;98504.75;2115719;84;20957;-85
2022/08/28 05:18:59;;;;;;;13.22;11.73;;;;;;;18.52;86.83;98505.05;2115862;84;21036;-82
2022/08/28 05:22:00;;;;;;;14.28;11.30;;;;;;;18.62;86.85;98508.35;2115523;83;21341;-83
2022/08/28 05:25:00;;;;;;;16.37;12.05;;;;;;;18.70;86.61;98511.66;2115305;83;20988;-81
2022/08/28 05:28:00;;;;;;;15.75;11.48;;;;;;;18.79;86.60;98512.75;2115618;83;21029;-83
2022/08/28 05:31:01;;;;;;;14.63;11.43;;;;;;;18.90;86.35;98509.36;2115494;84;21025;-83
2022/08/28 05:34:01;;;;;;;11.85;10.18;;;;;;;19.23;86.23;98515.98;2115555;84;20950;-83
2022/08/28 05:37:02;;;;;;;13.35;10.53;;;;;;;19.51;85.68;98508.98;2115747;83;20985;-84
2022/08/28 05:40:02;;;;;;;13.15;10.93;;;;;;;19.82;84.93;98510.30;2115630;83;21040;-86
2022/08/28 05:43:02;;;;;;;13.00;10.98;;;;;;;20.16;85.00;98506.16;2115379;83;21361;-83
2022/08/28 05:46:03;;;;;;;14.90;11.68;;;;;;;20.45;84.96;98508.35;2115496;83;20966;-84
2022/08/28 05:49:03;;;;;;;13.50;11.05;;;;;;;20.82;84.03;98513.31;2115741;83;20941;-84
2022/08/28 05:52:04;;;;;;;13.95;11.48;;;;;;;21.20;82.13;98504.84;2118089;83;21472;-84
2022/08/28 05:55:04;;;;;;;16.00;12.03;;;;;;;21.62;80.11;98502.42;2128661;82;20981;-83
2022/08/28 05:58:27;;;;;;;19.90;12.15;;;;;;;21.98;78.43;98505.94;2128632;82;21073;-83
2022/08/28 06:01:06;;;;;;;16.50;10.60;;;;;;;22.28;77.15;98503.00;2127632;82;21345;-83
2022/08/28 06:04:06;;;;;;;17.12;11.63;;;;;;;22.45;75.76;98508.49;2127847;82;21012;-83
2022/08/28 06:07:06;;;;;;;16.10;9.93;;;;;;;22.53;75.35;98501.92;2128632;82;20963;-84
2022/08/28 06:10:06;;;;;;;13.50;9.83;;;;;;;22.61;76.12;98507.42;2128517;84;21345;-83
2022/08/28 06:13:06;;;;;;;19.25;10.20;;;;;;;22.75;75.60;98504.58;2128290;84;21006;-84
2022/08/28 06:16:07;;;;;;;12.53;10.03;;;;;;;22.97;75.39;98505.88;2128681;84;21021;-83
2022/08/28 06:19:08;;;;;;;32.93;11.40;;;;;;;23.28;74.24;98504.53;2128647;82;20957;-83
2022/08/28 06:22:09;;;;;;;13.70;9.60;;;;;;;23.54;72.47;98505.57;2128311;82;20945;-82
2022/08/28 06:25:11;;;;;;;15.20;9.88;;;;;;;23.97;71.82;98497.80;2128355;84;21083;-82
2022/08/28 06:28:08;;;;;;;16.32;10.15;;;;;;;24.57;69.01;98501.13;2128605;84;21380;-83
2022/08/28 06:31:09;;;;;;;17.27;10.30;;;;;;;25.12;68.04;98505.00;2128386;82;20989;-82
2022/08/28 06:34:09;;;;;;;12.93;9.70;;;;;;;25.57;65.15;98504.38;2128411;84;21004;-82
2022/08/28 06:37:10;;;;;;;13.88;9.15;;;;;;;25.87;63.57;98503.20;2128445;84;21356;-82
2022/08/28 06:40:10;;;;;;;11.90;9.28;;;;;;;26.07;61.48;98505.27;2128218;84;20977;-82
2022/08/28 06:43:10;;;;;;;15.85;10.08;;;;;;;26.05;61.09;98501.82;2128429;83;21087;-80
2022/08/28 06:46:11;;;;;;;12.35;10.08;;;;;;;26.24;58.48;98506.52;2128401;82;21001;-82
2022/08/28 06:49:11;;;;;;;15.50;9.08;;;;;;;26.15;57.58;98505.70;2128178;82;21004;-81
2022/08/28 06:52:12;;;;;;;20.97;9.13;;;;;;;26.45;58.55;98503.97;2128082;83;21068;-82
2022/08/28 06:55:12;;;;;;;12.90;8.98;;;;;;;26.76;57.36;98506.19;2128461;83;21011;-81
2022/08/28 06:58:12;;;;;;;12.20;8.50;;;;;;;26.91;56.90;98507.99;2128136;84;21361;-81
2022/08/28 07:01:15;;;;;;;14.98;8.83;;;;;;;27.09;56.13;98505.58;2128082;84;20937;-82
2022/08/28 07:04:13;;;;;;;14.23;8.28;;;;;;;27.31;55.77;98505.61;2128478;84;21028;-82
2022/08/28 07:07:14;;;;;;;11.68;8.08;;;;;;;27.54;54.66;98502.36;2128579;84;21048;-82
2022/08/28 07:10:14;;;;;;;9.85;8.13;;;;;;;27.65;54.45;98501.72;2128239;84;21325;-82
2022/08/28 07:13:14;;;;;;;12.70;8.73;;;;;;;27.84;54.11;98492.92;2128278;84;21384;-81
2022/08/28 07:16:15;;;;;;;12.30;8.85;;;;;;;27.94;52.50;98495.88;2128482;84;21004;-81
2022/08/28 07:19:15;;;;;;;16.10;8.25;;;;;;;28.03;52.83;98495.28;2128543;83;20968;-81
2022/08/28 07:22:16;;;;;;;10.70;7.90;;;;;;;28.06;52.65;98495.95;2128377;84;21012;-83
2022/08/28 07:25:16;;;;;;;12.40;8.18;;;;;;;28.07;52.05;98504.38;2128052;84;21019;-82
2022/08/28 07:28:17;;;;;;;13.93;8.78;;;;;;;28.11;52.65;98507.24;2128194;84;20969;-81
2022/08/28 07:31:17;;;;;;;15.45;8.28;;;;;;;28.23;52.42;98497.56;2128499;84;20984;-81
2022/08/28 07:34:17;;;;;;;16.85;7.97;;;;;;;28.41;52.07;98499.03;2128547;84;21001;-82
2022/08/28 07:37:18;;;;;;;12.53;8.53;;;;;;;28.45;51.39;98490.30;2128185;83;21334;-82
2022/08/28 07:40:20;;;;;;;12.82;7.92;;;;;;;28.51;51.52;98492.09;2128306;84;21008;-83
2022/08/28 07:46:37;;;;;;;12.40;8.25;;;;;;;28.57;51.26;98495.33;2128376;83;20972;-82
2022/08/28 07:49:41;;;;;;;14.33;8.05;;;;;;;28.62;50.58;98499.46;2128373;84;20922;-82
2022/08/28 07:52:41;;;;;;;15.15;8.23;;;;;;;28.75;50.92;98503.05;2128203;83;21020;-81
2022/08/28 07:55:41;;;;;;;16.30;7.60;;;;;;;28.71;50.21;98504.22;2128461;84;20988;-81
2022/08/28 07:58:42;;;;;;;12.55;7.40;;;;;;;28.58;50.32;98497.05;2128411;84;20969;-81
2022/08/28 08:01:42;;;;;;;10.75;6.85;;;;;;;28.64;50.29;98500.70;2128286;84;21460;-82
2022/08/28 08:04:43;;;;;;;8.00;6.33;;;;;;;28.79;50.09;98496.50;2128474;83;21052;-81
2022/08/28 08:07:43;;;;;;;7.15;4.97;;;;;;;29.05;49.25;98498.78;2128376;84;21293;-82
2022/08/28 08:10:43;;;;;;;10.25;5.60;;;;;;;29.21;48.20;98489.66;2128331;84;20956;-82
2022/08/28 08:13:44;;;;;;;7.78;5.33;;;;;;;29.29;48.14;98498.05;2128607;83;20933;-81
2022/08/28 08:16:44;;;;;;;10.93;5.28;;;;;;;29.43;47.29;98500.66;2128560;84;20961;-81
2022/08/28 08:19:45;;;;;;;7.50;6.37;;;;;;;29.51;47.40;98499.67;2128214;84;20937;-82
2022/08/28 08:22:45;;;;;;;9.23;5.80;;;;;;;29.61;47.03;98496.70;2128374;83;20968;-83
2022/08/28 08:25:45;;;;;;;9.95;5.95;;;;;;;29.71;47.04;98498.25;2128566;84;20997;-81
2022/08/28 08:28:46;;;;;;;8.38;5.80;;;;;;;29.83;46.89;98501.40;2128335;83;21344;-82
2022/08/28 08:31:46;;;;;;;9.75;6.20;;;;;;;29.92;46.06;98502.08;2128631;83;21012;-81
2022/08/28 08:34:48;;;;;;;13.55;6.00;;;;;;;29.67;46.23;98494.05;2128295;84;20985;-82
2022/08/28 08:37:47;;;;;;;9.43;6.40;;;;;;;29.66;46.89;98491.85;2128444;83;20973;-81
2022/08/28 08:40:47;;;;;;;11.85;6.10;;;;;;;29.93;46.37;98489.48;2128294;83;20949;-83
2022/08/28 08:43:48;;;;;;;10.20;6.10;;;;;;;30.04;45.71;98497.19;2128167;84;21463;-82
2022/08/28 08:46:48;;;;;;;9.75;5.85;;;;;;;30.10;46.34;98494.53;2128326;84;20992;-81
2022/08/28 08:49:49;;;;;;;10.40;5.78;;;;;;;30.32;45.51;98496.02;2128394;84;20977;-81
2022/08/28 08:52:49;;;;;;;8.38;5.20;;;;;;;30.38;44.26;98494.24;2128266;84;21071;-81
2022/08/28 08:55:50;;;;;;;7.78;4.97;;;;;;;30.45;43.41;98498.68;2128396;83;21012;-82
2022/08/28 08:58:50;;;;;;;7.03;5.17;;;;;;;30.64;42.50;98506.27;2128094;84;20997;-81
2022/08/28 09:01:51;;;;;;;7.47;5.17;;;;;;;30.72;42.49;98506.06;2128106;84;20973;-81
2022/08/28 09:04:51;;;;;;;10.60;5.83;;;;;;;30.80;42.88;98505.48;2128224;84;21051;-83
2022/08/28 09:07:51;;;;;;;8.48;5.08;;;;;;;30.94;42.18;98512.02;2128393;83;20937;-81
2022/08/28 09:10:52;;;;;;;8.58;5.72;;;;;;;31.09;41.49;98509.98;2128343;84;21021;-83
2022/08/28 09:13:53;;;;;;;9.33;5.05;;;;;;;31.00;41.78;98517.43;2127879;84;20993;-80
2022/08/28 09:16:53;;;;;;;8.33;5.05;;;;;;;30.96;41.31;98518.16;2128071;84;20973;-81
2022/08/28 09:19:53;;;;;;;9.05;4.70;;;;;;;30.98;41.14;98519.39;2128349;84;20964;-81
2022/08/28 09:22:53;;;;;;;7.05;4.97;;;;;;;30.84;41.30;98512.36;2128388;84;20967;-81
2022/08/28 09:25:56;;;;;;;12.30;5.30;;;;;;;30.62;41.41;98514.47;2128220;84;21376;-80
2022/08/28 09:28:57;;;;;;;8.00;5.60;;;;;;;30.59;41.53;98516.05;2128064;84;20993;-81
2022/08/28 09:31:57;;;;;;;9.50;4.72;;;;;;;30.69;41.80;98514.87;2128461;83;20996;-82
2022/08/28 09:34:58;;;;;;;9.58;5.42;;;;;;;30.80;42.10;98511.36;2128494;83;21586;-84
2022/08/28 09:37:58;;;;;;;6.15;5.45;;;;;;;30.70;41.88;98514.75;2128758;84;21012;-82
2022/08/28 09:44:17;;;;;;;9.85;5.33;;;;;;;31.02;41.72;98515.48;2128787;83;21000;-82
2022/08/28 09:47:18;;;;;;;9.90;5.53;;;;;;;31.41;41.31;98518.81;2121724;84;21198;-81
2022/08/28 09:50:19;;;;;;;6.35;4.70;;;;;;;31.70;40.85;98509.80;2128639;84;21061;-82
2022/08/28 09:53:19;;;;;;;5.17;4.67;;;;;;;31.77;40.76;98512.38;2128342;83;21063;-81
2022/08/28 09:56:20;;;;;;;11.35;5.42;;;;;;;31.62;40.41;98511.23;2128430;84;21405;-81
2022/08/28 09:59:20;;;;;;;8.58;5.17;;;;;;;31.36;40.16;98515.99;2128162;84;21393;-82
2022/08/28 10:02:21;;;;;;;9.48;5.47;;;;;;;31.48;40.24;98507.42;2128244;84;20985;-81
2022/08/28 10:05:22;;;;;;;9.45;4.65;;;;;;;31.51;40.49;98511.23;2128289;84;21077;-83
2022/08/28 10:08:21;;;;;;;11.12;5.25;;;;;;;31.89;40.49;98505.50;2127921;84;20992;-82
2022/08/28 10:11:22;;;;;;;7.75;5.60;;;;;;;32.28;39.83;98504.16;2127836;83;20941;-82
2022/08/28 10:14:22;;;;;;;7.08;5.22;;;;;;;32.44;38.58;98498.34;2128312;84;20973;-82
2022/08/28 10:17:23;;;;;;;4.67;4.00;;;;;;;32.26;38.92;98498.03;2128449;84;21048;-83
2022/08/28 10:20:23;;;;;;;8.75;5.00;;;;;;;32.16;38.27;98497.03;2128506;83;20960;-84
2022/08/28 10:23:23;;;;;;;7.90;4.90;;;;;;;32.24;38.38;98498.64;2128653;84;21416;-83
2022/08/28 10:26:24;;;;;;;7.17;4.87;;;;;;;32.26;37.76;98502.56;2128318;84;21001;-84
2022/08/28 10:29:24;;;;;;;6.80;4.37;;;;;;;32.13;36.98;98493.73;2128808;84;21345;-85
2022/08/28 10:32:25;;;;;;;6.97;4.60;;;;;;;32.13;37.22;98495.94;2128735;84;21020;-83
2022/08/28 10:35:25;;;;;;;9.40;5.67;;;;;;;32.39;37.45;98498.36;2128679;83;20977;-83
2022/08/28 10:38:28;;;;;;;7.37;5.45;;;;;;;32.62;38.27;98502.21;2129082;84;21321;-84
2022/08/28 10:41:28;;;;;;;10.82;5.42;;;;;;;32.75;37.47;98497.98;2128915;84;21404;-83
2022/08/28 10:44:28;;;;;;;6.75;5.12;;;;;;;32.74;37.49;98500.81;2129066;84;21000;-84
2022/08/28 10:47:29;;;;;;;6.72;4.90;;;;;;;32.64;37.39;98498.03;2129020;84;20981;-84
2022/08/28 10:50:29;;;;;;;8.00;5.03;;;;;;;32.56;37.70;98500.52;2128989;84;20981;-84
2022/08/28 10:53:30;;;;;;;9.88;5.30;;;;;;;32.55;37.78;98502.85;2128779;84;21044;-83
2022/08/28 10:56:30;;;;;;;5.25;4.75;;;;;;;32.56;38.35;98499.16;2128938;84;20941;-83
2022/08/28 10:59:30;;;;;;;9.78;5.60;;;;;;;32.55;38.13;98497.45;2128845;83;21000;-83
2022/08/28 11:02:31;;;;;;;8.48;5.22;;;;;;;32.41;38.59;98489.64;2128874;84;20964;-84
2022/08/28 11:05:31;;;;;;;7.60;5.80;;;;;;;32.31;38.72;98494.95;2128663;84;21008;-83
2022/08/28 11:08:32;;;;;;;7.67;4.65;;;;;;;32.20;39.05;98497.64;2128693;84;20980;-83
2022/08/28 11:11:32;;;;;;;6.00;5.37;;;;;;;31.98;39.56;98493.10;2128766;84;20985;-82
2022/08/28 11:14:33;;;;;;;7.33;5.45;;;;;;;31.71;39.56;98493.98;2128668;84;20973;-83
2022/08/28 11:17:33;;;;;;;11.88;5.33;;;;;;;31.50;40.09;98490.63;2128703;84;20945;-82
2022/08/28 11:20:36;;;;;;;6.17;4.92;;;;;;;31.43;40.59;98493.44;2128882;84;20969;-85
2022/08/28 11:23:37;;;;;;;;;;;;;;;31.27;40.20;98489.75;2131338;84;20993;-83
2022/08/28 11:26:36;;;;;;;6.37;5.12;;;;;;;31.22;41.64;98492.44;2128146;84;20105;-82
2022/08/28 11:29:37;;;;;;;9.23;5.40;;;;;;;31.22;42.19;98490.59;2128921;84;21337;-83
2022/08/28 11:32:37;;;;;;;6.17;5.50;;;;;;;31.15;42.46;98489.81;2128775;84;20957;-83
2022/08/28 11:35:38;;;;;;;7.55;5.42;;;;;;;31.01;42.22;98488.16;2128932;83;20937;-83
2022/08/28 11:41:57;;;;;;;9.18;5.85;;;;;;;30.92;42.11;98486.17;2349316;76;23005;-84
2022/08/28 11:44:59;;;;;;;10.58;5.65;;;;;;;30.43;42.78;98490.72;2317958;77;20990;-83
2022/08/28 11:47:59;;;;;;;10.82;6.15;;;;;;;29.81;44.10;98495.27;2318073;77;20966;-83
2022/08/28 11:51:01;;;;;;;9.85;5.97;;;;;;;29.34;45.85;98502.61;2317952;77;21268;-83
2022/08/28 11:54:00;;;;;;;11.40;6.65;;;;;;;28.88;47.24;98494.19;2318012;77;20950;-83
2022/08/28 11:57:00;;;;;;;8.48;6.37;;;;;;;28.53;48.88;98500.05;2318026;77;21273;-82
2022/08/28 12:00:00;;;;;;;10.70;6.72;;;;;;;28.28;49.44;98500.81;2317759;77;21370;-84
2022/08/28 12:03:01;;;;;;;16.85;7.60;;;;;;;28.12;50.75;98499.58;2317792;77;20967;-83
2022/08/28 12:06:01;;;;;;;18.48;7.97;;;;;;;28.10;52.73;98496.12;2317975;77;20892;-83
2022/08/28 12:09:02;;;;;;;24.27;9.80;;;;;;;28.03;52.82;98485.41;2316824;77;20928;-83
2022/08/28 12:12:02;;;;;;;23.52;9.53;;;;;;;27.76;58.15;98482.69;2290156;78;20933;-84
2022/08/28 12:15:02;;;;;;;15.93;9.30;;;;;;;27.09;58.68;98483.28;2292504;78;20908;-84
2022/08/28 12:18:03;;;;;;;15.68;7.95;;;;;;;26.83;59.00;98478.09;2292339;78;21310;-84
2022/08/28 12:21:03;;;;;;;12.68;8.25;;;;;;;26.84;59.07;98470.45;2292439;78;21006;-84
2022/08/28 12:24:04;;;;;;;14.98;8.58;;;;;;;26.87;60.87;98475.14;2292612;78;20970;-85
2022/08/28 12:27:04;;;;;;;13.22;7.70;;;;;;;26.68;62.03;98473.66;2292664;78;20987;-84
2022/08/28 12:30:05;;;;;;;13.10;8.50;;;;;;;26.50;61.60;98471.59;2291853;78;20986;-82
2022/08/28 12:33:05;;;;;;;15.45;8.48;;;;;;;26.23;63.74;98473.55;2292087;78;20988;-81
2022/08/28 12:36:05;;;;;;;13.80;8.70;;;;;;;25.83;65.65;98470.91;2292274;78;20937;-81
2022/08/28 12:39:06;;;;;;;15.35;8.80;;;;;;;25.56;66.11;98471.06;2291004;78;21356;-81
2022/08/28 12:42:06;;;;;;;10.38;8.20;;;;;;;25.40;68.15;98472.38;2285148;78;21013;-81
2022/08/28 12:45:06;;;;;;;15.98;7.72;;;;;;;25.19;65.04;98465.03;2282080;78;20898;-80
2022/08/28 12:48:07;;;;;;;13.98;9.48;;;;;;;25.14;65.11;98477.73;2282150;78;20922;-81
2022/08/28 12:51:07;;;;;;;13.00;9.35;;;;;;;25.08;69.81;98486.08;2281902;78;20926;-82
2022/08/28 12:54:08;;;;;;;14.07;9.60;;;;;;;24.80;71.73;98487.09;2281579;78;20939;-81
2022/08/28 12:57:08;;;;;;;13.70;8.45;;;;;;;24.46;74.08;98495.47;2281803;78;20925;-83
2022/08/28 13:00:08;;;;;;;11.45;8.78;;;;;;;24.11;73.71;98488.66;2281846;77;20961;-82
2022/08/28 13:03:09;;;;;;;11.10;8.15;;;;;;;23.88;72.37;98488.91;2281927;78;20946;-82
2022/08/28 13:06:10;;;;;;;9.78;8.80;;;;;;;24.04;66.66;98499.23;2281800;78;20910;-81
2022/08/28 13:09:10;;;;;;;11.80;9.00;;;;;;;24.42;67.96;98525.43;2281616;78;21330;-81
2022/08/28 13:12:10;;;;;;;17.32;10.50;;;;;;;24.62;71.98;98531.11;2281791;78;20985;-81
2022/08/28 13:15:11;;;;;;;15.13;9.28;;;;;;;24.24;71.77;98516.06;2281779;78;20961;-82
2022/08/28 13:18:11;;;;;;;14.38;8.35;;;;;;;23.88;72.53;98512.89;2281466;77;21360;-82
2022/08/28 13:21:12;;;;;;;14.35;7.92;;;;;;;23.66;70.27;98517.50;2281711;78;21072;-82
2022/08/28 13:24:12;;;;;;;14.50;9.63;;;;;;;23.48;71.12;98533.36;2281720;77;20973;-80
2022/08/28 13:27:12;;;;;;;14.65;9.83;;;;;;;23.24;72.72;98541.08;2281294;78;20989;-82
2022/08/28 13:30:13;;;;;;;12.47;9.60;;;;;;;22.97;73.64;98544.48;2281572;78;20953;-80
2022/08/28 13:33:13;;;;;;;11.22;8.03;;;;;;;22.73;71.90;98529.52;2281804;78;20926;-81
2022/08/28 13:36:13;;;;;;;11.15;8.48;;;;;;;22.52;73.25;98528.59;2281396;78;21322;-81
2022/08/28 13:39:14;;;;;;;10.60;9.25;;;;;;;22.38;74.11;98535.80;2281413;78;20970;-81
2022/08/28 13:42:14;;;;;;;10.38;8.20;;;;;;;22.59;76.11;98540.73;2250026;78;21083;-81
2022/08/28 13:45:15;;;;;;;13.80;8.43;;;;;;;23.23;74.77;98545.14;2249048;78;21347;-81
2022/08/28 13:48:15;;;;;;;11.88;8.60;;;;;;;23.13;73.25;98556.19;2248939;79;20967;-81
2022/08/28 13:51:15;;;;;;;16.90;8.95;;;;;;;22.66;73.68;98555.52;2248840;78;20979;-81
2022/08/28 13:54:16;;;;;;;13.78;11.15;;;;;;;22.37;74.67;98556.67;2248649;78;21318;-81
2022/08/28 13:57:16;;;;;;;15.48;10.70;;;;;;;22.16;76.47;98558.39;2248526;78;20916;-81
2022/08/28 14:00:17;;;;;;;16.55;11.22;;;;;;;21.92;77.97;98548.69;2248847;78;21003;-81
2022/08/28 14:03:37;;;;;;;16.82;12.88;;;;;;;21.78;78.76;98558.98;2249214;78;20916;-81
2022/08/28 14:06:36;;;;;;;14.20;9.88;;;;;;;21.85;79.86;98568.45;2249372;79;20952;-81
2022/08/28 14:09:36;;;;;;;16.55;10.90;;;;;;;21.88;80.61;98569.66;2250020;78;20931;-81
2022/08/28 14:12:36;;;;;;;14.47;11.78;;;;;;;21.88;79.73;98568.34;2263106;78;20900;-81
2022/08/28 14:15:37;;;;;;;14.53;11.68;;;;;;;21.60;81.34;98575.98;2262996;78;20928;-81